Time;durP1;ratioP1;P1;durP2;ratioP2;P2;SDS_P1;SDS_P2;PMS_P1;PMS_P2;Temp;Humidity;BMP_temperature;BMP_pressure;BME280_temperature;BME280_humidity;BME280_pressure;Samples;Min_cycle;Max_cycle;Signal;HPM_P1;HPM_P2
2022/10/13 19:32:12;;;;;;;18.00;6.90;;;;;;;21.00;46.96;101112.19;105983;1296;544280;-85
2022/10/13 19:34:37;;;;;;;11.80;6.90;;;;;;;20.24;41.29;101111.13;106209;1302;121883;-84
2022/10/13 19:37:04;;;;;;;13.20;7.10;;;;;;;18.17;41.56;101123.16;106298;1312;23653;-84
2022/10/13 19:39:30;;;;;;;11.70;7.20;;;;;;;16.25;43.04;101131.50;106453;1303;21973;-84
2022/10/13 19:41:56;;;;;;;14.90;8.00;;;;;;;14.73;44.59;101139.73;106296;1298;21979;-84
2022/10/13 19:44:22;;;;;;;12.90;6.20;;;;;;;13.62;45.65;101141.73;106189;1312;21979;-84
2022/10/13 19:46:48;;;;;;;11.90;6.20;;;;;;;12.77;46.64;101147.23;106043;1312;235626;-84
2022/10/13 19:49:19;;;;;;;11.20;6.90;;;;;;;12.09;47.66;101151.44;106153;1312;21985;-84
2022/10/13 19:51:46;;;;;;;9.40;5.80;;;;;;;11.63;48.23;101152.71;106363;1310;22163;-88
2022/10/13 19:54:12;;;;;;;10.10;6.40;;;;;;;11.30;48.92;101154.23;106067;1312;23615;-87
2022/10/13 19:56:38;;;;;;;11.10;6.70;;;;;;;10.99;49.69;101160.09;106118;1312;21999;-87
2022/10/13 19:59:04;;;;;;;12.00;7.00;;;;;;;10.78;50.40;101160.98;106301;1312;23062;-87
2022/10/13 20:01:32;;;;;;;14.60;7.50;;;;;;;10.72;51.13;101158.36;106410;1312;21979;-87
2022/10/13 20:03:57;;;;;;;14.50;6.30;;;;;;;10.62;51.38;101158.02;106464;1312;21977;-87
2022/10/13 20:06:23;;;;;;;11.00;6.60;;;;;;;10.51;51.66;101163.98;106285;1305;21973;-88
2022/10/13 20:08:51;;;;;;;13.80;7.20;;;;;;;10.47;51.24;101158.72;106356;1312;21972;-88
2022/10/13 20:11:18;;;;;;;13.60;6.80;;;;;;;10.41;51.73;101159.05;106891;1310;21998;-88
2022/10/13 20:13:46;;;;;;;15.00;7.50;;;;;;;10.34;52.19;101159.04;106770;1312;21992;-88
2022/10/13 20:16:31;;;;;;;16.60;6.70;;;;;;;10.23;52.45;101156.91;106766;1312;21946;-88
2022/10/13 20:18:58;;;;;;;13.30;6.40;;;;;;;10.12;52.71;101156.02;106804;1306;21977;-88
2022/10/13 20:21:25;;;;;;;11.40;6.40;;;;;;;10.06;53.39;101155.47;106340;1310;21991;-88
2022/10/13 20:23:50;;;;;;;12.00;6.60;;;;;;;9.99;53.71;101159.48;106455;1312;22356;-88
2022/10/13 20:26:17;;;;;;;13.10;6.60;;;;;;;9.93;54.00;101158.77;106444;1312;22643;-88
2022/10/13 20:28:43;;;;;;;11.90;6.70;;;;;;;9.92;54.02;101154.91;106393;1311;22241;-88
2022/10/13 20:31:11;;;;;;;12.10;6.10;;;;;;;9.90;54.01;101155.44;106529;1307;21972;-89
2022/10/13 20:33:37;;;;;;;13.20;6.80;;;;;;;9.87;54.42;101155.77;106328;1311;21973;-87
2022/10/13 20:36:05;;;;;;;11.90;6.50;;;;;;;9.82;56.01;101156.63;106199;1312;21977;-87
2022/10/13 20:38:34;;;;;;;12.60;6.30;;;;;;;9.85;55.43;101159.98;106237;1312;22072;-87
2022/10/13 20:41:03;;;;;;;11.80;6.20;;;;;;;9.94;54.73;101157.55;106353;1311;22735;-88
2022/10/13 20:43:29;;;;;;;11.30;6.20;;;;;;;9.95;54.16;101158.06;106702;1312;22134;-88
2022/10/13 20:46:00;;;;;;;14.40;6.50;;;;;;;9.93;54.22;101150.17;106458;1311;21980;-87
2022/10/13 20:48:30;;;;;;;19.30;7.40;;;;;;;9.85;54.01;101150.52;106536;1312;21979;-88
2022/10/13 20:51:05;;;;;;;13.40;7.30;;;;;;;9.79;54.61;101152.23;106150;1312;21953;-88
2022/10/13 20:53:32;;;;;;;11.70;6.30;;;;;;;9.77;54.51;101150.65;106650;1312;22423;-88
2022/10/13 20:56:00;;;;;;;11.50;6.60;;;;;;;9.72;54.56;101150.45;106709;1312;21961;-87
2022/10/13 20:58:27;;;;;;;13.60;6.70;;;;;;;9.78;54.14;101146.79;106631;1312;21971;-88
2022/10/13 21:00:53;;;;;;;12.30;6.50;;;;;;;9.75;54.15;101146.78;106591;1310;21937;-88
2022/10/13 21:03:19;;;;;;;13.50;7.10;;;;;;;9.79;53.26;101149.08;106828;1311;21946;-88
2022/10/13 21:05:47;;;;;;;14.10;7.00;;;;;;;9.77;53.82;101146.80;106643;1312;22000;-88
2022/10/13 21:08:12;;;;;;;11.90;6.80;;;;;;;9.74;54.08;101146.60;106336;1312;23708;-88
2022/10/13 21:10:38;;;;;;;13.40;7.20;;;;;;;9.76;54.50;101145.21;106899;1312;23093;-88
2022/10/13 21:13:05;;;;;;;13.80;6.70;;;;;;;9.80;53.89;101142.95;106538;1312;21968;-89
2022/10/13 21:15:36;;;;;;;13.50;6.70;;;;;;;9.79;54.14;101144.88;106498;1312;21977;-88
2022/10/13 21:18:02;;;;;;;12.90;7.60;;;;;;;9.76;54.35;101147.48;106421;1312;21982;-88
2022/10/13 21:20:29;;;;;;;15.60;8.40;;;;;;;9.71;54.65;101148.00;106159;1311;21978;-89
2022/10/13 21:22:56;;;;;;;13.80;8.10;;;;;;;9.67;54.32;101152.03;106195;1311;22160;-89
2022/10/13 21:25:22;;;;;;;16.40;9.40;;;;;;;9.62;54.59;101149.39;106272;1307;21981;-88
2022/10/13 21:27:47;;;;;;;17.70;9.40;;;;;;;9.62;54.48;101146.75;106332;1311;23010;-88
2022/10/13 21:30:13;;;;;;;19.40;9.40;;;;;;;9.61;54.10;101148.49;106308;1306;23785;-88
2022/10/13 21:32:39;;;;;;;16.30;8.70;;;;;;;9.56;54.35;101146.19;106500;1310;21986;-89
2022/10/13 21:35:05;;;;;;;19.30;9.80;;;;;;;9.49;54.82;101146.17;106164;1312;21976;-89
2022/10/13 21:37:35;;;;;;;15.70;9.00;;;;;;;9.46;54.51;101145.27;106263;1312;22005;-88
2022/10/13 21:40:01;;;;;;;16.20;10.00;;;;;;;9.40;54.55;101141.91;106382;1306;22007;-88
2022/10/13 21:42:30;;;;;;;15.80;9.50;;;;;;;9.32;54.37;101139.25;106369;1312;22019;-89
2022/10/13 21:44:56;;;;;;;19.90;10.50;;;;;;;9.29;54.85;101141.33;106253;1310;21981;-88
2022/10/13 21:47:22;;;;;;;18.10;9.70;;;;;;;9.26;55.08;101146.40;106452;1312;21993;-88
2022/10/13 21:49:47;;;;;;;20.00;11.40;;;;;;;9.27;55.28;101146.92;106126;1312;22908;-88
2022/10/13 21:52:13;;;;;;;19.70;11.60;;;;;;;9.24;55.91;101142.18;106025;1311;21989;-88
2022/10/13 21:54:40;;;;;;;21.20;12.20;;;;;;;9.21;55.80;101145.33;106144;1312;21981;-88
2022/10/13 21:57:06;;;;;;;22.00;11.60;;;;;;;9.21;55.52;101147.77;106062;1311;22022;-88
2022/10/13 21:59:32;;;;;;;21.40;11.80;;;;;;;9.21;55.64;101148.48;106119;1307;21985;-88
2022/10/13 22:01:57;;;;;;;24.10;11.20;;;;;;;9.25;55.63;101145.70;105993;1307;21987;-89
2022/10/13 22:04:23;;;;;;;18.10;10.30;;;;;;;9.20;56.24;101146.36;106036;1310;21978;-89
2022/10/13 22:06:50;;;;;;;21.70;12.70;;;;;;;9.14;56.71;101146.15;106127;1312;23116;-88
2022/10/13 22:09:16;;;;;;;23.40;11.80;;;;;;;9.04;56.65;101145.41;105963;1311;22632;-88
2022/10/13 22:11:42;;;;;;;27.20;13.00;;;;;;;8.95;56.96;101147.98;106079;1312;21977;-89
2022/10/13 22:14:07;;;;;;;25.90;13.70;;;;;;;8.94;57.27;101151.11;106675;1311;21982;-89
2022/10/13 22:16:39;;;;;;;20.90;11.70;;;;;;;8.93;57.51;101154.08;106958;1312;23654;-89
2022/10/13 22:19:05;;;;;;;22.20;11.90;;;;;;;8.96;56.17;101150.25;107114;1307;22002;-89
2022/10/13 22:21:34;;;;;;;25.20;13.90;;;;;;;8.93;55.86;101151.80;106840;1312;21980;-90
2022/10/13 22:24:02;;;;;;;21.50;11.50;;;;;;;8.89;55.93;101151.25;107116;1312;22015;-89
2022/10/13 22:26:29;;;;;;;26.90;12.40;;;;;;;8.83;55.40;101152.08;106813;1312;21980;-89
2022/10/13 22:28:56;;;;;;;22.90;11.60;;;;;;;8.78;54.83;101154.50;107101;1306;21970;-90
2022/10/13 22:31:22;;;;;;;18.50;11.30;;;;;;;8.70;54.78;101155.83;106882;1307;22151;-89
2022/10/13 22:33:47;;;;;;;23.50;12.80;;;;;;;8.64;54.45;101158.75;106765;1312;22688;-89
2022/10/13 22:36:15;;;;;;;22.50;12.00;;;;;;;8.60;54.51;101157.52;106830;1311;22270;-89
2022/10/13 22:38:42;;;;;;;22.40;12.40;;;;;;;8.58;54.51;101155.38;106879;1312;21967;-89
2022/10/13 22:41:08;;;;;;;23.70;14.40;;;;;;;8.56;55.19;101155.73;106829;1312;21982;-89
2022/10/13 22:43:34;;;;;;;21.10;12.30;;;;;;;8.55;54.99;101157.13;106913;1310;21969;-90
2022/10/13 22:46:03;;;;;;;20.90;11.40;;;;;;;8.57;55.56;101156.61;107115;1312;21986;-90
2022/10/13 22:48:29;;;;;;;16.90;11.30;;;;;;;8.55;56.48;101158.16;107096;1310;21996;-89
2022/10/13 22:50:55;;;;;;;19.90;12.30;;;;;;;8.54;56.49;101160.78;107038;1310;21998;-90
2022/10/13 22:53:22;;;;;;;18.90;10.80;;;;;;;8.53;55.38;101164.11;106927;1310;21975;-90
2022/10/13 22:55:48;;;;;;;20.60;12.40;;;;;;;8.65;55.05;101160.69;106826;1311;21990;-90
2022/10/13 22:58:14;;;;;;;20.80;11.30;;;;;;;8.75;55.19;101159.36;106968;1306;21984;-90
2022/10/13 23:00:40;;;;;;;22.30;11.50;;;;;;;8.77;55.26;101160.27;106935;1311;22451;-89
2022/10/13 23:03:05;;;;;;;20.20;9.90;;;;;;;8.77;54.68;101162.19;106664;1312;22220;-89
2022/10/13 23:05:33;;;;;;;17.30;10.30;;;;;;;8.71;54.53;101160.39;106241;1312;21981;-89
2022/10/13 23:07:59;;;;;;;17.70;10.90;;;;;;;8.78;54.20;101160.10;106471;1312;23503;-89
2022/10/13 23:10:27;;;;;;;16.90;10.20;;;;;;;8.71;53.93;101157.77;106235;1312;21991;-89
2022/10/13 23:12:53;;;;;;;17.50;9.60;;;;;;;8.70;53.94;101157.92;106292;1312;21973;-89
2022/10/13 23:15:19;;;;;;;17.50;10.00;;;;;;;8.54;54.57;101156.76;106210;1312;22012;-89
2022/10/13 23:17:44;;;;;;;17.70;10.40;;;;;;;8.53;54.74;101155.88;106196;1312;23749;-88
2022/10/13 23:20:11;;;;;;;17.80;10.40;;;;;;;8.49;54.85;101155.14;105872;1310;21967;-89
2022/10/13 23:22:38;;;;;;;18.90;9.90;;;;;;;8.47;54.72;101154.22;105834;1311;21981;-88
2022/10/13 23:25:04;;;;;;;18.10;9.10;;;;;;;8.43;55.04;101156.80;105754;1312;22148;-89
2022/10/13 23:27:30;;;;;;;16.60;10.50;;;;;;;8.41;54.99;101158.34;105770;1312;21971;-89
2022/10/13 23:29:56;;;;;;;16.10;9.30;;;;;;;8.38;54.99;101157.45;105781;1312;21999;-88
2022/10/13 23:32:22;;;;;;;19.30;10.70;;;;;;;8.35;55.03;101160.77;105656;1312;22291;-89
2022/10/13 23:34:48;;;;;;;17.70;9.40;;;;;;;8.33;54.80;101158.98;105396;1313;21978;-88
2022/10/13 23:37:13;;;;;;;17.60;10.90;;;;;;;8.23;55.13;101160.28;105499;1310;21978;-89
2022/10/13 23:39:40;;;;;;;20.10;10.90;;;;;;;8.19;55.28;101156.06;105662;1312;21987;-88
2022/10/13 23:42:06;;;;;;;23.60;11.80;;;;;;;8.16;55.34;101159.00;105999;1312;24327;-89
2022/10/13 23:44:32;;;;;;;20.30;10.60;;;;;;;8.15;55.62;101159.68;106078;1312;21962;-88
2022/10/13 23:46:57;;;;;;;18.50;9.70;;;;;;;8.12;55.80;101158.95;105468;1312;21962;-88
2022/10/13 23:52:18;;;;;;;21.40;9.80;;;;;;;8.06;55.53;101158.55;104401;1300;980648;-88
2022/10/13 23:54:44;;;;;;;16.20;8.80;;;;;;;8.16;55.18;101156.71;105196;1304;22006;-87
2022/10/13 23:57:10;;;;;;;19.90;9.80;;;;;;;8.18;55.09;101158.31;104962;1315;22040;-87
2022/10/13 23:59:37;;;;;;;16.00;9.60;;;;;;;8.16;55.15;101152.16;105160;1300;21980;-87
